createdAt,value
2023-08-28T00:01:35.226Z,5.22
2023-08-28T00:04:16.212Z,4.03
2023-08-28T00:09:40.934Z,5.30
2023-08-28T00:12:10.235Z,5.93
2023-08-28T00:17:24.809Z,5.20
2023-08-28T00:19:52.253Z,5.00
2023-08-28T00:22:21.025Z,5.18
2023-08-28T00:24:48.791Z,4.55
2023-08-28T00:27:17.110Z,5.07
2023-08-28T00:29:53.541Z,5.10
2023-08-28T00:32:22.940Z,4.97
2023-08-28T00:34:54.725Z,5.05
2023-08-28T00:37:22.384Z,4.60
2023-08-28T00:39:51.895Z,5.03
2023-08-28T00:45:04.612Z,5.43
2023-08-28T00:47:42.409Z,5.05
2023-08-28T00:50:10.190Z,4.82
2023-08-28T00:52:41.113Z,5.63
2023-08-28T00:55:23.052Z,5.70
2023-08-28T00:57:56.843Z,5.85
2023-08-28T01:00:26.366Z,6.00
2023-08-28T01:02:55.905Z,5.82
2023-08-28T01:05:35.201Z,5.90
2023-08-28T01:08:16.444Z,5.70
2023-08-28T01:10:49.660Z,5.38
2023-08-28T01:13:26.982Z,4.82
2023-08-28T01:15:56.155Z,7.13
2023-08-28T01:18:25.257Z,6.53
2023-08-28T01:23:33.996Z,6.30
2023-08-28T01:26:02.562Z,6.13
2023-08-28T01:28:32.935Z,5.97
2023-08-28T01:31:17.647Z,6.22
2023-08-28T01:36:33.948Z,5.72
2023-08-28T01:39:07.483Z,6.50
2023-08-28T01:41:36.678Z,6.40
2023-08-28T01:44:15.178Z,5.43
2023-08-28T01:46:46.996Z,5.15
2023-08-28T01:49:19.732Z,5.22
2023-08-28T01:51:48.330Z,5.07
2023-08-28T01:54:17.089Z,5.82
2023-08-28T01:56:51.633Z,4.40
2023-08-28T01:59:22.773Z,6.28
2023-08-28T02:01:54.487Z,5.43
2023-08-28T02:04:24.235Z,4.68
2023-08-28T02:07:00.527Z,4.68
2023-08-28T02:13:00.199Z,5.50
2023-08-28T02:15:47.187Z,5.10
2023-08-28T02:20:45.670Z,5.13
2023-08-28T02:23:14.160Z,5.47
2023-08-28T02:25:48.864Z,6.10
2023-08-28T02:28:19.923Z,6.80
2023-08-28T02:30:47.817Z,6.78
2023-08-28T02:33:17.303Z,7.15
2023-08-28T02:35:45.379Z,6.32
2023-08-28T02:38:15.895Z,6.75
2023-08-28T02:40:44.170Z,7.70
2023-08-28T02:43:13.971Z,7.60
2023-08-28T02:45:44.448Z,6.43
2023-08-28T02:48:12.864Z,6.40
2023-08-28T02:50:57.966Z,7.30
2023-08-28T02:53:27.174Z,7.68
2023-08-28T02:56:21.580Z,7.78
2023-08-28T02:58:49.722Z,6.32
2023-08-28T03:01:18.712Z,7.65
2023-08-28T03:03:46.823Z,7.85
2023-08-28T03:06:16.712Z,7.32
2023-08-28T03:11:34.468Z,8.05
2023-08-28T03:25:00.237Z,8.55
2023-08-28T03:30:13.605Z,8.27
2023-08-28T03:32:41.598Z,9.85
2023-08-28T03:35:16.519Z,9.30
2023-08-28T03:41:38.997Z,9.45
2023-08-28T03:53:39.831Z,8.85
2023-08-28T04:10:00.923Z,8.98
2023-08-28T04:12:31.077Z,9.75
2023-08-28T07:54:12.983Z,2.10
2023-08-28T21:32:20.360Z,1.20
2023-08-28T21:34:49.188Z,1.15
2023-08-28T21:37:21.841Z,1.83
2023-08-28T21:43:22.592Z,1.40
2023-08-28T21:46:04.280Z,1.00
2023-08-28T21:48:37.270Z,1.35
2023-08-28T21:51:14.069Z,1.38
2023-08-28T21:53:55.928Z,1.65
2023-08-28T21:56:25.981Z,1.30
2023-08-28T21:58:56.709Z,1.60
2023-08-28T22:01:25.114Z,1.50
2023-08-28T22:03:53.447Z,1.70
2023-08-28T22:06:26.647Z,1.70
2023-08-28T22:09:03.855Z,1.90
2023-08-28T22:11:40.710Z,2.63
2023-08-28T22:14:08.665Z,2.13
2023-08-28T22:16:38.065Z,2.40
2023-08-28T22:19:10.387Z,2.90
2023-08-28T22:21:39.172Z,2.90
2023-08-28T22:27:05.484Z,2.08
2023-08-28T22:29:36.251Z,2.17
2023-08-28T22:32:06.054Z,2.42
2023-08-28T22:34:37.806Z,1.98
2023-08-28T22:37:05.770Z,2.10
2023-08-28T22:39:34.559Z,1.73
2023-08-28T22:45:11.152Z,2.03
2023-08-28T22:47:42.711Z,2.03
2023-08-28T22:50:11.610Z,1.80
2023-08-28T22:52:38.684Z,1.88
2023-08-28T22:55:08.402Z,1.95
2023-08-28T22:57:36.976Z,3.90
2023-08-28T23:00:09.848Z,2.53
2023-08-28T23:02:43.104Z,3.28
2023-08-28T23:05:19.253Z,3.83
2023-08-28T23:07:58.366Z,3.60
2023-08-28T23:10:26.909Z,3.60
2023-08-28T23:12:54.885Z,4.00
2023-08-28T23:15:26.656Z,4.68
2023-08-28T23:17:54.753Z,4.53
2023-08-28T23:20:25.145Z,5.68
2023-08-28T23:22:54.368Z,7.03
2023-08-28T23:25:39.742Z,6.63
2023-08-28T23:28:09.856Z,5.63
2023-08-28T23:30:40.670Z,6.45
2023-08-28T23:33:08.708Z,7.13
2023-08-28T23:35:47.290Z,7.63
2023-08-28T23:38:15.553Z,8.02
2023-08-28T23:40:51.717Z,8.52
2023-08-28T23:45:58.457Z,7.68
2023-08-28T23:48:29.679Z,8.52
2023-08-28T23:51:21.199Z,10.05
2023-08-28T23:53:48.934Z,9.30
2023-08-28T23:56:16.828Z,9.18
2023-08-28T23:58:47.115Z,8.27
